Time;durP1;ratioP1;P1;durP2;ratioP2;P2;SDS_P1;SDS_P2;PMS_P1;PMS_P2;Temp;Humidity;BMP_temperature;BMP_pressure;BME280_temperature;BME280_humidity;BME280_pressure;Samples;Min_cycle;Max_cycle;Signal;HPM_P1;HPM_P2
2021/09/02 00:01:27;;;;;;;8.02;4.22;;;18.80;77.10;;;;;;4970936;28;20034;-69
2021/09/02 00:03:53;;;;;;;9.35;4.55;;;18.80;77.20;;;;;;4974501;28;20026;-68
2021/09/02 00:06:19;;;;;;;6.55;3.97;;;18.80;77.30;;;;;;4972550;28;20034;-69
2021/09/02 00:08:44;;;;;;;7.20;4.03;;;18.80;77.30;;;;;;4973544;28;20394;-69
2021/09/02 00:11:10;;;;;;;9.93;4.43;;;18.80;77.40;;;;;;4973606;28;20035;-68
2021/09/02 00:13:36;;;;;;;8.48;3.65;;;18.80;77.50;;;;;;4971688;28;20034;-69
2021/09/02 00:16:02;;;;;;;11.98;5.13;;;18.80;77.60;;;;;;4972609;28;20050;-69
2021/09/02 00:18:28;;;;;;;6.03;3.90;;;18.80;77.60;;;;;;4972992;28;20039;-69
2021/09/02 00:20:54;;;;;;;11.02;4.88;;;18.80;77.70;;;;;;4973545;28;20030;-69
2021/09/02 00:23:20;;;;;;;8.07;3.83;;;18.70;77.80;;;;;;4973437;28;20493;-69
2021/09/02 00:25:45;;;;;;;6.95;3.63;;;18.70;77.90;;;;;;4969825;28;20093;-69
2021/09/02 00:28:12;;;;;;;6.28;3.47;;;18.70;77.90;;;;;;4973787;28;20557;-69
2021/09/02 00:30:38;;;;;;;7.63;3.53;;;18.60;78.00;;;;;;4972109;28;20137;-69
2021/09/02 00:33:03;;;;;;;10.95;4.28;;;18.60;78.10;;;;;;4972620;28;20026;-69
2021/09/02 00:35:29;;;;;;;5.90;3.92;;;18.60;78.20;;;;;;4972911;28;20031;-69
2021/09/02 00:37:55;;;;;;;6.32;3.42;;;18.60;78.30;;;;;;4971490;28;20478;-68
2021/09/02 00:40:20;;;;;;;8.38;4.80;;;18.60;78.30;;;;;;4971446;28;20035;-69
2021/09/02 00:42:46;;;;;;;7.15;4.28;;;18.60;78.30;;;;;;4971966;28;20062;-69
2021/09/02 00:45:12;;;;;;;9.00;4.60;;;18.60;78.40;;;;;;4972716;28;20034;-69
2021/09/02 00:47:37;;;;;;;9.55;4.40;;;18.60;78.50;;;;;;4970898;28;20438;-69
2021/09/02 00:50:05;;;;;;;9.05;5.00;;;18.60;78.50;;;;;;4973119;28;20051;-69
2021/09/02 00:52:32;;;;;;;8.23;4.38;;;18.70;78.50;;;;;;4970611;28;20073;-69
2021/09/02 00:55:01;;;;;;;7.60;3.90;;;18.70;78.50;;;;;;4961661;28;20434;-69
2021/09/02 00:57:30;;;;;;;6.97;4.07;;;18.60;78.50;;;;;;4971898;28;20541;-69
2021/09/02 01:00:06;;;;;;;8.32;3.78;;;18.60;78.60;;;;;;4970086;28;20039;-68
2021/09/02 01:02:31;;;;;;;7.25;3.78;;;18.60;78.80;;;;;;4972757;28;20038;-69
2021/09/02 01:05:01;;;;;;;7.38;4.20;;;18.60;78.80;;;;;;4972195;28;20113;-69
2021/09/02 01:07:28;;;;;;;8.85;4.10;;;18.60;78.90;;;;;;4972151;28;20026;-69
2021/09/02 01:09:55;;;;;;;6.15;4.03;;;18.60;79.00;;;;;;4972748;28;20053;-69
2021/09/02 01:12:42;;;;;;;9.43;4.40;;;18.60;79.00;;;;;;4971731;28;20035;-69
2021/09/02 01:15:26;;;;;;;7.00;3.95;;;18.60;79.00;;;;;;4971586;28;20054;-69
2021/09/02 01:17:56;;;;;;;8.20;4.32;;;18.60;79.10;;;;;;4967311;28;20118;-68
2021/09/02 01:20:26;;;;;;;11.15;4.50;;;18.60;79.10;;;;;;4971620;28;20119;-69
2021/09/02 01:22:54;;;;;;;11.77;4.45;;;18.60;79.20;;;;;;4973578;28;20038;-69
2021/09/02 01:25:23;;;;;;;10.25;4.28;;;18.60;79.30;;;;;;4975357;28;20126;-69
2021/09/02 01:27:55;;;;;;;6.10;3.65;;;18.60;79.40;;;;;;4977184;28;20045;-69
2021/09/02 01:30:22;;;;;;;12.73;4.30;;;18.60;79.50;;;;;;4975839;28;20050;-68
2021/09/02 01:32:50;;;;;;;11.63;4.80;;;18.60;79.50;;;;;;4975561;28;20062;-69
2021/09/02 01:35:17;;;;;;;10.38;4.28;;;18.60;79.70;;;;;;4975353;28;20497;-69
2021/09/02 01:37:55;;;;;;;10.50;4.70;;;18.60;79.70;;;;;;4976438;28;20486;-69
2021/09/02 01:40:27;;;;;;;10.02;4.63;;;18.60;79.70;;;;;;4975308;28;20129;-69
2021/09/02 01:42:53;;;;;;;12.30;4.13;;;18.60;80.50;;;;;;4975780;28;20117;-69
2021/09/02 01:45:20;;;;;;;15.15;5.00;;;18.60;79.90;;;;;;4976040;28;20066;-69
2021/09/02 01:47:47;;;;;;;11.75;4.53;;;18.60;79.80;;;;;;4973593;28;20537;-69
2021/09/02 01:50:21;;;;;;;11.00;5.10;;;18.60;79.90;;;;;;4976810;28;20050;-69
2021/09/02 01:52:48;;;;;;;10.20;5.10;;;18.60;80.00;;;;;;4975111;28;20537;-69
2021/09/02 01:55:14;;;;;;;10.35;4.95;;;18.60;79.90;;;;;;4974570;28;20030;-69
2021/09/02 01:57:41;;;;;;;14.10;4.93;;;18.60;79.90;;;;;;4976080;28;20042;-69
2021/09/02 02:00:09;;;;;;;14.18;4.60;;;18.60;80.00;;;;;;4973499;28;20474;-69
2021/09/02 02:02:34;;;;;;;11.52;4.53;;;18.60;80.10;;;;;;4975423;28;20035;-69
2021/09/02 02:05:00;;;;;;;14.70;4.65;;;18.60;80.10;;;;;;4971823;28;20034;-69
2021/09/02 02:07:26;;;;;;;11.02;4.88;;;18.60;80.10;;;;;;4974372;28;20445;-69
2021/09/02 02:09:53;;;;;;;12.50;4.70;;;18.60;80.10;;;;;;4975434;28;20085;-69
2021/09/02 02:12:18;;;;;;;10.55;4.72;;;18.60;80.20;;;;;;4975841;28;20054;-69
2021/09/02 02:14:44;;;;;;;17.80;5.43;;;18.60;80.20;;;;;;4974759;28;20035;-69
2021/09/02 02:17:10;;;;;;;12.13;4.63;;;18.60;80.20;;;;;;4974433;28;20537;-69
2021/09/02 02:19:35;;;;;;;15.07;5.90;;;18.60;80.30;;;;;;4974629;28;20069;-69
2021/09/02 02:22:02;;;;;;;12.70;4.50;;;18.50;80.50;;;;;;4974541;28;20035;-69
2021/09/02 02:24:27;;;;;;;11.45;4.82;;;18.50;80.70;;;;;;4976179;28;20034;-69
2021/09/02 02:26:53;;;;;;;11.75;4.72;;;18.50;80.70;;;;;;4971882;28;20031;-69
2021/09/02 02:29:19;;;;;;;13.63;5.63;;;18.50;80.80;;;;;;4974327;28;20046;-69
2021/09/02 02:31:44;;;;;;;12.63;5.25;;;18.50;81.10;;;;;;4974470;28;20434;-69
2021/09/02 02:34:10;;;;;;;14.73;5.10;;;18.50;81.20;;;;;;4973369;28;20110;-69
2021/09/02 02:36:36;;;;;;;16.23;5.13;;;18.40;81.00;;;;;;4974971;28;20121;-69
2021/09/02 02:39:02;;;;;;;12.65;5.00;;;18.40;81.10;;;;;;4974603;28;20042;-69
2021/09/02 02:41:28;;;;;;;14.63;5.20;;;18.40;81.40;;;;;;4975629;28;20033;-69
2021/09/02 02:43:54;;;;;;;9.52;5.07;;;18.40;81.50;;;;;;4974328;28;20110;-69
2021/09/02 02:46:19;;;;;;;14.85;5.38;;;18.40;81.50;;;;;;4975614;28;20027;-69
2021/09/02 02:48:45;;;;;;;18.77;5.05;;;18.40;81.70;;;;;;4973470;28;20066;-69
2021/09/02 02:51:11;;;;;;;17.55;5.50;;;18.40;81.60;;;;;;4970759;28;20034;-69
2021/09/02 02:53:36;;;;;;;14.02;4.85;;;18.40;81.60;;;;;;4974977;28;20057;-69
2021/09/02 02:56:02;;;;;;;14.60;5.93;;;18.40;81.90;;;;;;4973616;28;20027;-69
2021/09/02 02:58:28;;;;;;;19.25;5.80;;;18.40;82.10;;;;;;4973694;28;20029;-69
2021/09/02 03:00:54;;;;;;;13.70;6.15;;;18.30;82.00;;;;;;4974751;28;20478;-69
2021/09/02 03:03:19;;;;;;;15.07;5.13;;;18.30;82.00;;;;;;4971607;28;20079;-69
2021/09/02 03:05:45;;;;;;;16.27;6.40;;;18.30;82.10;;;;;;4974551;28;20035;-69
2021/09/02 03:08:10;;;;;;;16.58;5.60;;;18.30;82.40;;;;;;4967993;28;20073;-69
2021/09/02 03:10:36;;;;;;;12.82;6.30;;;18.40;82.70;;;;;;4969503;28;20035;-69
2021/09/02 03:13:02;;;;;;;21.77;7.40;;;18.40;83.10;;;;;;4974197;28;20481;-69
2021/09/02 03:15:29;;;;;;;19.70;6.70;;;18.40;83.50;;;;;;4967819;28;20458;-69
2021/09/02 03:17:56;;;;;;;17.60;6.82;;;18.40;83.70;;;;;;4970831;28;20094;-70
2021/09/02 03:20:22;;;;;;;24.25;8.13;;;18.40;84.00;;;;;;4974578;28;20045;-69
2021/09/02 03:22:47;;;;;;;16.42;7.88;;;18.40;84.20;;;;;;4974765;28;20109;-69
2021/09/02 03:25:13;;;;;;;22.92;9.05;;;18.40;84.40;;;;;;4972397;28;20027;-69
2021/09/02 03:27:39;;;;;;;24.35;7.93;;;18.50;84.70;;;;;;4965375;28;20035;-69
2021/09/02 03:30:06;;;;;;;23.15;8.23;;;18.50;84.80;;;;;;4969721;28;20035;-69
2021/09/02 03:32:32;;;;;;;22.20;7.88;;;18.50;84.90;;;;;;4973603;28;20470;-69
2021/09/02 03:34:57;;;;;;;20.90;7.88;;;18.50;85.00;;;;;;4973352;28;20045;-68
2021/09/02 03:37:23;;;;;;;22.23;8.43;;;18.50;85.00;;;;;;4974411;28;20027;-69
2021/09/02 03:39:49;;;;;;;24.38;7.07;;;18.60;85.20;;;;;;4973546;28;20121;-69
2021/09/02 03:42:14;;;;;;;20.80;6.93;;;18.60;85.30;;;;;;4973765;28;20034;-69
2021/09/02 03:44:40;;;;;;;19.88;6.22;;;18.60;85.20;;;;;;4974277;28;20034;-69
2021/09/02 03:47:06;;;;;;;20.15;7.15;;;18.60;85.10;;;;;;4972002;28;20101;-69
2021/09/02 03:49:31;;;;;;;16.23;5.88;;;18.70;85.20;;;;;;4974719;28;20509;-69
2021/09/02 03:51:57;;;;;;;16.25;6.05;;;18.70;85.20;;;;;;4972946;28;20505;-69
2021/09/02 03:54:22;;;;;;;21.13;5.90;;;18.70;85.20;;;;;;4973797;28;20048;-69
2021/09/02 03:56:48;;;;;;;20.30;6.20;;;18.70;85.10;;;;;;4971666;28;20573;-71
2021/09/02 03:59:14;;;;;;;15.20;5.60;;;18.70;85.00;;;;;;4972842;28;20035;-71
2021/09/02 04:01:39;;;;;;;22.15;5.43;;;18.70;85.00;;;;;;4973056;28;20030;-71
2021/09/02 04:04:05;;;;;;;14.30;5.25;;;18.70;85.00;;;;;;4973715;28;20078;-71
2021/09/02 04:06:31;;;;;;;16.85;5.20;;;18.70;84.90;;;;;;4973234;28;20372;-71
2021/09/02 04:08:56;;;;;;;14.32;5.45;;;18.70;84.90;;;;;;4972820;28;20371;-71
2021/09/02 04:11:22;;;;;;;23.40;4.93;;;18.80;84.90;;;;;;4972262;28;20031;-71
2021/09/02 04:13:47;;;;;;;11.68;4.80;;;18.80;84.90;;;;;;4973831;28;20049;-72
2021/09/02 04:16:13;;;;;;;23.33;5.15;;;18.80;84.80;;;;;;4972947;28;20602;-72
2021/09/02 04:18:39;;;;;;;17.08;4.82;;;18.80;84.80;;;;;;4972360;28;20493;-72
2021/09/02 04:21:05;;;;;;;24.42;6.95;;;18.80;84.80;;;;;;4973889;28;20057;-71
2021/09/02 04:23:32;;;;;;;19.25;5.03;;;18.80;85.20;;;;;;4972754;28;20070;-72
2021/09/02 04:25:58;;;;;;;18.27;4.40;;;18.80;84.50;;;;;;4971443;28;20054;-76
2021/09/02 04:28:24;;;;;;;14.60;4.25;;;18.80;84.40;;;;;;4971432;28;20043;-71
2021/09/02 04:30:50;;;;;;;14.88;4.72;;;18.80;84.40;;;;;;4973213;28;20042;-71
2021/09/02 04:33:15;;;;;;;18.77;4.72;;;18.80;84.30;;;;;;4973551;28;20035;-71
2021/09/02 04:35:41;;;;;;;13.48;4.40;;;18.80;84.10;;;;;;4971766;28;20023;-71
2021/09/02 04:38:07;;;;;;;18.80;4.93;;;18.80;84.00;;;;;;4972998;28;20027;-71
2021/09/02 04:40:32;;;;;;;14.25;5.32;;;18.80;83.90;;;;;;4972442;28;20398;-71
2021/09/02 04:42:58;;;;;;;16.20;4.20;;;18.80;83.90;;;;;;4972786;28;20027;-71
2021/09/02 04:45:24;;;;;;;12.38;4.45;;;18.80;83.90;;;;;;4973678;28;20039;-73
2021/09/02 04:47:50;;;;;;;20.13;5.28;;;18.80;83.80;;;;;;4972320;28;20023;-71
2021/09/02 04:50:17;;;;;;;16.95;5.00;;;18.80;83.70;;;;;;4971922;28;20129;-71
2021/09/02 04:52:43;;;;;;;19.75;3.83;;;18.80;83.60;;;;;;4972438;28;20035;-71
2021/09/02 04:55:10;;;;;;;15.82;4.63;;;18.80;83.50;;;;;;4973645;28;20073;-70
2021/09/02 04:57:37;;;;;;;15.00;4.43;;;18.80;83.40;;;;;;4968264;28;20026;-70
2021/09/02 05:00:04;;;;;;;16.80;4.38;;;18.80;83.30;;;;;;4971834;28;20041;-70
2021/09/02 05:02:30;;;;;;;15.45;4.80;;;18.80;83.20;;;;;;4971648;28;20101;-70
2021/09/02 05:04:56;;;;;;;16.67;3.95;;;18.80;83.10;;;;;;4971714;28;20138;-70
2021/09/02 05:07:22;;;;;;;17.55;4.20;;;18.80;82.90;;;;;;4972808;28;20078;-70
2021/09/02 05:09:47;;;;;;;15.35;4.93;;;18.80;82.80;;;;;;4972415;28;20049;-70
2021/09/02 05:12:14;;;;;;;20.15;5.65;;;18.80;82.60;;;;;;4972173;28;20023;-76
2021/09/02 05:14:40;;;;;;;13.65;4.63;;;18.80;82.30;;;;;;4972335;28;20121;-70
2021/09/02 05:17:05;;;;;;;13.25;4.90;;;18.80;81.90;;;;;;4971661;28;20447;-71
2021/09/02 05:19:31;;;;;;;13.52;4.22;;;18.80;81.70;;;;;;4972496;28;20030;-71
2021/09/02 05:21:56;;;;;;;14.00;5.22;;;18.80;81.70;;;;;;4967016;28;20472;-71
2021/09/02 05:24:22;;;;;;;11.50;4.63;;;18.80;81.60;;;;;;4972296;28;20103;-70
2021/09/02 05:26:48;;;;;;;14.15;5.78;;;18.80;81.50;;;;;;4970727;28;20034;-70
2021/09/02 05:29:13;;;;;;;14.60;5.95;;;18.80;81.50;;;;;;4971662;28;20125;-70
2021/09/02 05:31:39;;;;;;;13.57;5.78;;;18.80;81.50;;;;;;4971760;28;20478;-72
2021/09/02 05:34:04;;;;;;;14.07;5.82;;;18.80;81.80;;;;;;4970082;28;20034;-70
2021/09/02 05:36:30;;;;;;;19.92;6.18;;;18.90;82.20;;;;;;4968432;28;20085;-70
2021/09/02 05:38:56;;;;;;;13.68;6.22;;;18.90;82.60;;;;;;4967054;28;20029;-70
2021/09/02 05:41:21;;;;;;;17.75;6.05;;;18.90;82.40;;;;;;4969494;28;20035;-72
2021/09/02 05:43:47;;;;;;;17.92;5.70;;;18.90;82.50;;;;;;4972565;28;20026;-70
2021/09/02 05:46:12;;;;;;;18.60;4.68;;;19.00;82.00;;;;;;4971780;28;20037;-71
2021/09/02 05:48:38;;;;;;;15.90;6.10;;;19.00;82.10;;;;;;4971092;28;20011;-71
2021/09/02 05:51:04;;;;;;;10.88;5.93;;;19.00;81.90;;;;;;4969540;28;20039;-71
2021/09/02 05:53:29;;;;;;;15.73;6.28;;;19.00;81.60;;;;;;4966486;28;20054;-71
2021/09/02 05:55:55;;;;;;;16.95;6.00;;;19.00;81.60;;;;;;4966375;28;20027;-71
2021/09/02 05:58:20;;;;;;;13.98;6.25;;;19.00;81.40;;;;;;4972768;28;20068;-71
2021/09/02 06:00:47;;;;;;;13.65;5.82;;;19.00;81.40;;;;;;4971311;28;20458;-71
2021/09/02 06:03:13;;;;;;;17.13;6.47;;;19.00;81.40;;;;;;4962697;28;20454;-71
2021/09/02 06:05:38;;;;;;;14.40;6.20;;;19.00;81.40;;;;;;4970601;28;20023;-71
2021/09/02 06:08:04;;;;;;;18.55;6.68;;;19.00;81.50;;;;;;4973413;28;20062;-71
2021/09/02 06:10:32;;;;;;;11.95;5.85;;;19.00;81.40;;;;;;4976098;28;20490;-71
2021/09/02 06:12:58;;;;;;;15.05;5.65;;;19.00;81.50;;;;;;4975693;28;20061;-71
2021/09/02 06:15:24;;;;;;;17.85;6.40;;;19.00;81.70;;;;;;4974112;28;20078;-71
2021/09/02 06:17:49;;;;;;;22.23;5.80;;;19.00;82.00;;;;;;4973394;28;20470;-72
2021/09/02 06:20:15;;;;;;;19.40;5.88;;;19.00;82.30;;;;;;4974919;28;20035;-71
2021/09/02 06:22:41;;;;;;;21.45;5.88;;;19.00;82.60;;;;;;4974031;28;20077;-70
2021/09/02 06:25:08;;;;;;;14.13;5.57;;;19.00;82.90;;;;;;4970972;28;20027;-71
2021/09/02 06:27:34;;;;;;;16.60;5.90;;;19.10;83.20;;;;;;4973642;28;20479;-71
2021/09/02 06:30:00;;;;;;;18.85;5.88;;;19.10;83.30;;;;;;4969868;28;20037;-71
2021/09/02 06:32:26;;;;;;;18.08;5.72;;;19.10;83.40;;;;;;4974670;28;20117;-71
2021/09/02 06:34:51;;;;;;;20.52;5.53;;;19.10;83.40;;;;;;4973804;28;20030;-71
2021/09/02 06:37:17;;;;;;;13.85;4.90;;;19.10;83.40;;;;;;4973582;28;20027;-71
2021/09/02 06:39:43;;;;;;;12.95;5.05;;;19.10;83.20;;;;;;4975009;28;20026;-71
2021/09/02 06:42:08;;;;;;;14.02;5.82;;;19.10;83.00;;;;;;4973874;28;20685;-71
2021/09/02 06:44:34;;;;;;;18.63;5.28;;;19.10;82.90;;;;;;4975258;28;20041;-71
2021/09/02 06:47:00;;;;;;;20.33;5.35;;;19.20;83.00;;;;;;4975542;28;20035;-72
2021/09/02 06:49:25;;;;;;;20.10;5.35;;;19.20;83.10;;;;;;4971675;28;20086;-71
2021/09/02 06:51:53;;;;;;;20.85;6.82;;;19.20;83.00;;;;;;4974813;28;20035;-71
2021/09/02 06:54:19;;;;;;;16.02;5.40;;;19.20;83.00;;;;;;4973068;28;20398;-72
2021/09/02 06:56:45;;;;;;;16.98;5.22;;;19.20;83.00;;;;;;4974132;28;20414;-71
2021/09/02 06:59:10;;;;;;;16.00;5.40;;;19.20;82.70;;;;;;4974785;28;20107;-71
2021/09/02 07:01:36;;;;;;;18.63;5.15;;;19.20;82.50;;;;;;4974735;28;20043;-71
2021/09/02 07:04:02;;;;;;;14.07;5.72;;;19.20;82.60;;;;;;4970766;28;20042;-72
2021/09/02 07:06:27;;;;;;;20.88;5.63;;;19.20;82.50;;;;;;4974684;28;20027;-71
2021/09/02 07:08:53;;;;;;;8.55;4.25;;;19.30;82.50;;;;;;4972501;28;20070;-72
2021/09/02 07:11:19;;;;;;;15.60;5.20;;;19.20;82.50;;;;;;4973172;28;20546;-74
2021/09/02 07:13:44;;;;;;;17.00;6.43;;;19.30;82.60;;;;;;4975207;28;20050;-73
2021/09/02 07:16:10;;;;;;;18.83;5.53;;;19.30;82.20;;;;;;4972862;28;20043;-73
2021/09/02 07:18:35;;;;;;;14.52;6.05;;;19.30;81.60;;;;;;4972504;28;20035;-73
2021/09/02 07:21:01;;;;;;;16.60;6.38;;;19.30;81.30;;;;;;4972667;28;20069;-73
2021/09/02 07:23:27;;;;;;;14.02;4.90;;;19.30;81.20;;;;;;4973216;28;20034;-73
2021/09/02 07:25:52;;;;;;;13.13;4.53;;;19.30;80.70;;;;;;4972785;28;20034;-73
2021/09/02 07:28:18;;;;;;;12.90;3.92;;;19.30;80.50;;;;;;4972697;28;20035;-73
2021/09/02 07:30:44;;;;;;;12.90;4.25;;;19.20;79.80;;;;;;4974614;28;20425;-73
2021/09/02 07:33:11;;;;;;;10.48;4.40;;;19.30;79.80;;;;;;4973267;28;20062;-73
2021/09/02 07:35:37;;;;;;;13.80;4.72;;;19.30;79.50;;;;;;4974560;28;20039;-73
2021/09/02 07:38:03;;;;;;;16.00;4.60;;;19.30;79.30;;;;;;4973137;28;20027;-73
2021/09/02 07:40:28;;;;;;;16.27;5.50;;;19.30;79.40;;;;;;4970453;28;20054;-73
2021/09/02 07:42:54;;;;;;;15.52;4.72;;;19.40;79.70;;;;;;4973877;28;20037;-73
2021/09/02 07:45:20;;;;;;;11.00;4.22;;;19.30;79.90;;;;;;4973018;28;20037;-73
2021/09/02 07:47:45;;;;;;;17.70;4.78;;;19.40;79.80;;;;;;4973531;28;20023;-73
2021/09/02 07:50:12;;;;;;;11.98;4.28;;;19.40;79.60;;;;;;4973563;28;21325;-73
2021/09/02 07:52:38;;;;;;;15.68;4.47;;;19.40;79.30;;;;;;4972603;28;20029;-73
2021/09/02 07:55:07;;;;;;;14.02;4.53;;;19.40;79.20;;;;;;4974014;28;20439;-73
2021/09/02 07:57:33;;;;;;;14.15;4.72;;;19.40;79.20;;;;;;4972390;28;20097;-73
2021/09/02 07:59:59;;;;;;;13.18;4.38;;;19.40;79.30;;;;;;4973709;28;20026;-73
2021/09/02 08:02:24;;;;;;;13.82;4.68;;;19.50;79.40;;;;;;4972423;28;20475;-73
2021/09/02 08:04:50;;;;;;;12.07;4.18;;;19.40;79.10;;;;;;4973289;28;20482;-73
2021/09/02 08:07:15;;;;;;;13.00;4.47;;;19.40;79.10;;;;;;4973281;28;20034;-73
2021/09/02 08:09:41;;;;;;;13.07;3.95;;;19.40;79.00;;;;;;4973637;28;20043;-73
2021/09/02 08:12:07;;;;;;;15.25;4.50;;;19.40;78.90;;;;;;4973800;28;20019;-73
2021/09/02 08:14:32;;;;;;;18.17;4.70;;;19.30;78.90;;;;;;4972951;28;20418;-73
2021/09/02 08:16:58;;;;;;;10.32;3.92;;;19.30;78.90;;;;;;4973532;28;20026;-73
2021/09/02 08:19:24;;;;;;;12.48;3.97;;;19.30;78.90;;;;;;4973583;28;20043;-73
2021/09/02 08:21:49;;;;;;;14.38;5.55;;;19.30;78.80;;;;;;4972816;28;20038;-73
2021/09/02 08:24:16;;;;;;;14.48;4.50;;;19.30;78.80;;;;;;4973853;28;20042;-73
2021/09/02 08:26:42;;;;;;;15.68;4.28;;;19.30;78.80;;;;;;4972483;28;20062;-73
2021/09/02 08:29:07;;;;;;;11.80;4.47;;;19.30;78.80;;;;;;4972842;28;20069;-73
2021/09/02 08:31:33;;;;;;;7.45;3.90;;;19.30;78.90;;;;;;4971297;28;20062;-73
2021/09/02 08:33:59;;;;;;;12.77;3.60;;;19.30;78.90;;;;;;4972929;28;20054;-73
2021/09/02 08:36:25;;;;;;;9.00;4.13;;;19.30;78.70;;;;;;4972823;28;20030;-73
2021/09/02 08:38:51;;;;;;;13.30;4.13;;;19.30;78.70;;;;;;4972715;28;20120;-73
2021/09/02 08:41:17;;;;;;;9.38;3.97;;;19.30;78.90;;;;;;4973671;28;20074;-73
2021/09/02 08:43:45;;;;;;;11.85;4.20;;;19.30;79.00;;;;;;4971201;28;20466;-73
2021/09/02 08:46:11;;;;;;;14.25;4.45;;;19.20;79.20;;;;;;4972936;28;20023;-73
2021/09/02 08:48:39;;;;;;;11.05;4.20;;;19.20;79.10;;;;;;4971338;28;20170;-73
2021/09/02 08:51:05;;;;;;;10.30;3.90;;;19.20;79.10;;;;;;4972284;28;20081;-73
2021/09/02 08:53:31;;;;;;;11.65;4.05;;;19.20;79.20;;;;;;4973462;28;20105;-73
2021/09/02 08:55:57;;;;;;;13.00;4.38;;;19.30;79.40;;;;;;4971412;28;20181;-73
2021/09/02 08:58:23;;;;;;;13.40;5.10;;;19.20;79.20;;;;;;4973646;28;20027;-73
2021/09/02 09:00:48;;;;;;;17.38;4.47;;;19.20;79.20;;;;;;4972482;28;20031;-73
2021/09/02 09:03:18;;;;;;;7.15;3.67;;;19.20;79.30;;;;;;4971742;28;20118;-73
2021/09/02 09:05:51;;;;;;;13.95;4.03;;;19.20;79.30;;;;;;4972874;28;20161;-72
2021/09/02 09:08:17;;;;;;;13.98;4.82;;;19.20;79.40;;;;;;4970776;28;20035;-72
2021/09/02 09:10:42;;;;;;;11.45;4.00;;;19.20;79.20;;;;;;4972300;28;20514;-74
2021/09/02 09:13:09;;;;;;;10.80;3.80;;;19.20;79.30;;;;;;4967914;28;20136;-74
2021/09/02 09:15:41;;;;;;;15.30;4.13;;;19.30;79.10;;;;;;4971608;28;20062;-74
2021/09/02 09:18:18;;;;;;;13.50;3.63;;;19.30;78.80;;;;;;4969029;28;20034;-74
2021/09/02 09:21:02;;;;;;;13.65;4.40;;;19.30;79.30;;;;;;4973068;28;20128;-74
2021/09/02 09:24:14;;;;;;;8.30;4.28;;;19.40;78.90;;;;;;4969937;28;20070;-74
2021/09/02 09:26:40;;;;;;;15.32;4.80;;;19.40;78.80;;;;;;4973949;28;20044;-74
2021/09/02 09:29:17;;;;;;;14.25;4.70;;;19.40;78.70;;;;;;4978142;28;20126;-74
2021/09/02 09:31:43;;;;;;;16.35;4.63;;;19.40;78.60;;;;;;4969633;28;20041;-74
2021/09/02 09:34:09;;;;;;;13.93;4.32;;;19.50;78.60;;;;;;4971210;28;20028;-72
2021/09/02 09:36:37;;;;;;;13.00;4.65;;;19.50;78.80;;;;;;4972287;28;20134;-69
2021/09/02 09:39:11;;;;;;;16.42;4.85;;;19.50;78.80;;;;;;4966659;28;20031;-71
2021/09/02 09:41:40;;;;;;;12.38;4.47;;;19.50;78.80;;;;;;4972483;28;20035;-71
2021/09/02 09:44:19;;;;;;;12.05;4.35;;;19.50;78.90;;;;;;4972011;28;20038;-71
2021/09/02 09:47:10;;;;;;;12.93;4.40;;;19.50;78.90;;;;;;4970143;28;20034;-71
2021/09/02 09:49:44;;;;;;;16.08;4.80;;;19.50;79.00;;;;;;4975538;28;20043;-72
2021/09/02 09:52:17;;;;;;;16.98;4.57;;;19.50;79.00;;;;;;4973630;28;20062;-71
2021/09/02 09:54:43;;;;;;;12.65;3.88;;;19.50;78.90;;;;;;4976012;28;20037;-72
2021/09/02 09:57:10;;;;;;;10.32;3.70;;;19.50;79.10;;;;;;4975479;28;20390;-71
2021/09/02 09:59:36;;;;;;;12.30;4.10;;;19.50;79.10;;;;;;4975376;28;20030;-71
2021/09/02 10:02:04;;;;;;;11.43;3.92;;;19.50;79.20;;;;;;4976097;28;20031;-71
2021/09/02 10:04:34;;;;;;;10.82;4.15;;;19.50;79.00;;;;;;4975851;28;20023;-71
2021/09/02 10:07:04;;;;;;;9.90;4.00;;;19.50;78.80;;;;;;4975661;28;20037;-71
2021/09/02 10:09:34;;;;;;;12.75;3.88;;;19.50;78.90;;;;;;4974248;28;20045;-71
2021/09/02 10:12:02;;;;;;;13.27;4.82;;;19.50;78.80;;;;;;4975877;28;20050;-71
2021/09/02 10:14:28;;;;;;;12.57;4.43;;;19.50;78.60;;;;;;4975343;28;20105;-73
2021/09/02 10:16:56;;;;;;;13.38;4.60;;;19.50;78.40;;;;;;4973169;28;20039;-72
2021/09/02 10:19:23;;;;;;;9.52;4.35;;;19.60;78.60;;;;;;4975278;28;20069;-70
2021/09/02 10:21:51;;;;;;;13.48;4.40;;;19.60;78.50;;;;;;4975025;28;20087;-70
2021/09/02 10:24:35;;;;;;;9.25;3.72;;;19.60;78.30;;;;;;4975597;28;20042;-71
2021/09/02 10:27:22;;;;;;;10.38;4.05;;;19.70;77.90;;;;;;4973372;28;20041;-71
2021/09/02 10:29:49;;;;;;;12.45;4.45;;;19.70;78.10;;;;;;4961674;28;20101;-71
2021/09/02 10:32:24;;;;;;;15.30;4.68;;;19.80;78.10;;;;;;4975168;28;20129;-71
2021/09/02 10:35:09;;;;;;;14.25;4.85;;;19.80;78.10;;;;;;4974580;28;20390;-71
2021/09/02 10:37:35;;;;;;;16.50;4.38;;;19.80;78.10;;;;;;4975224;28;20030;-71
2021/09/02 10:40:04;;;;;;;13.57;4.78;;;19.80;78.30;;;;;;4975922;28;20031;-71
2021/09/02 10:42:53;;;;;;;16.60;4.80;;;19.80;78.10;;;;;;4972494;28;20402;-72
2021/09/02 10:45:24;;;;;;;13.30;4.25;;;19.80;78.10;;;;;;4974720;28;20058;-72
2021/09/02 10:47:51;;;;;;;14.95;5.30;;;19.80;78.10;;;;;;4975059;28;20074;-71
2021/09/02 10:50:21;;;;;;;12.45;5.00;;;19.90;78.20;;;;;;4974794;28;20133;-71
2021/09/02 10:52:46;;;;;;;13.50;4.25;;;19.80;78.10;;;;;;4971091;28;20026;-71
2021/09/02 10:55:36;;;;;;;15.00;4.25;;;19.90;77.90;;;;;;4971173;28;20037;-71
2021/09/02 10:58:04;;;;;;;8.15;3.33;;;19.90;77.90;;;;;;4967725;28;20027;-70
2021/09/02 11:00:42;;;;;;;6.32;2.63;;;19.90;78.40;;;;;;4966008;28;20117;-71
2021/09/02 11:03:19;;;;;;;14.00;4.50;;;20.00;78.60;;;;;;4971678;28;20406;-71
2021/09/02 11:05:53;;;;;;;8.02;3.45;;;20.00;78.30;;;;;;4973696;28;20042;-71
2021/09/02 11:08:34;;;;;;;5.57;2.78;;;19.90;78.50;;;;;;4974761;28;20038;-71
2021/09/02 11:11:12;;;;;;;15.55;3.92;;;19.90;78.60;;;;;;4973731;28;20054;-71
2021/09/02 11:13:39;;;;;;;14.40;4.95;;;19.90;78.60;;;;;;4974469;28;20111;-71
2021/09/02 11:16:11;;;;;;;14.35;4.70;;;19.90;78.30;;;;;;4974886;28;20097;-71
2021/09/02 11:18:43;;;;;;;11.48;5.03;;;19.90;78.40;;;;;;4972875;28;20047;-71
2021/09/02 11:21:17;;;;;;;19.95;4.78;;;19.90;78.10;;;;;;4973143;28;20034;-71
2021/09/02 11:23:48;;;;;;;21.85;4.95;;;19.90;78.10;;;;;;4971655;28;20058;-71
2021/09/02 11:26:36;;;;;;;12.52;4.80;;;20.00;78.10;;;;;;4973453;28;20130;-72
2021/09/02 11:29:02;;;;;;;11.23;3.40;;;20.00;78.00;;;;;;4971994;28;20478;-71
2021/09/02 11:31:29;;;;;;;11.38;4.55;;;20.00;78.50;;;;;;4972159;28;20050;-71
2021/09/02 11:33:54;;;;;;;11.93;4.53;;;20.00;78.10;;;;;;4971684;28;20031;-71
2021/09/02 11:36:21;;;;;;;14.90;4.90;;;20.10;78.10;;;;;;4962366;28;20046;-71
2021/09/02 11:38:48;;;;;;;13.32;4.75;;;20.10;77.70;;;;;;4972893;28;20055;-71
2021/09/02 11:41:20;;;;;;;14.50;4.75;;;20.10;77.60;;;;;;4974499;28;20058;-71
2021/09/02 11:43:46;;;;;;;12.80;3.97;;;20.10;76.50;;;;;;4974411;28;20030;-71
2021/09/02 11:46:12;;;;;;;16.50;5.45;;;20.20;77.10;;;;;;4973552;28;20035;-71
2021/09/02 11:48:45;;;;;;;15.25;4.70;;;20.20;76.40;;;;;;4971950;28;20034;-71
2021/09/02 11:51:11;;;;;;;12.40;4.45;;;20.20;76.40;;;;;;4972871;28;20062;-71
2021/09/02 11:53:36;;;;;;;12.85;4.78;;;20.30;77.10;;;;;;4973544;28;20063;-71
2021/09/02 11:56:10;;;;;;;10.35;4.03;;;20.20;76.90;;;;;;4973906;28;20030;-71
2021/09/02 11:58:35;;;;;;;;;;;20.30;76.90;;;;;;4972486;28;20035;-71
2021/09/02 12:01:02;;;;;;;14.38;4.55;;;20.40;77.80;;;;;;4973037;28;19919;-71
2021/09/02 12:03:27;;;;;;;10.68;3.80;;;20.30;77.10;;;;;;4966806;28;20026;-71
2021/09/02 12:05:56;;;;;;;13.10;4.85;;;20.30;77.20;;;;;;4966540;28;20031;-71
2021/09/02 12:08:22;;;;;;;11.75;3.72;;;20.30;75.90;;;;;;4972553;28;20027;-71
2021/09/02 12:10:48;;;;;;;19.33;4.25;;;20.40;77.10;;;;;;4973197;28;20047;-71
2021/09/02 12:13:23;;;;;;;11.85;4.55;;;20.40;76.90;;;;;;4973306;28;20035;-71
2021/09/02 12:16:07;;;;;;;14.25;4.78;;;20.40;76.70;;;;;;4968191;28;20521;-71
2021/09/02 12:18:34;;;;;;;16.80;4.72;;;20.40;76.10;;;;;;4973054;28;20111;-75
2021/09/02 12:21:34;;;;;;;12.32;4.47;;;20.50;75.50;;;;;;4969299;28;20023;-75
2021/09/02 12:24:11;;;;;;;10.52;4.60;;;20.50;74.80;;;;;;4967953;28;20054;-74
2021/09/02 12:26:52;;;;;;;15.57;5.18;;;20.60;74.60;;;;;;4967897;28;20031;-75
2021/09/02 12:29:20;;;;;;;14.90;4.93;;;20.70;74.40;;;;;;4972019;28;20356;-71
2021/09/02 12:31:47;;;;;;;14.15;4.65;;;20.70;74.60;;;;;;4972733;28;20097;-72
2021/09/02 12:34:20;;;;;;;14.63;4.47;;;20.80;75.10;;;;;;4971603;28;20465;-71
2021/09/02 12:37:00;;;;;;;15.35;4.93;;;20.80;74.90;;;;;;4973598;28;20122;-71
2021/09/02 12:39:29;;;;;;;13.30;4.72;;;20.80;74.40;;;;;;4967257;28;20035;-71
2021/09/02 12:42:00;;;;;;;14.30;5.10;;;20.90;74.20;;;;;;4972711;28;20089;-71